Time;durP1;ratioP1;P1;durP2;ratioP2;P2;SDS_P1;SDS_P2;PMS_P1;PMS_P2;Temp;Humidity;BMP_temperature;BMP_pressure;BME280_temperature;BME280_humidity;BME280_pressure;Samples;Min_cycle;Max_cycle;Signal;HPM_P1;HPM_P2
2023/04/22 00:00:48;;;;;;;7.55;6.45;;;12.40;99.90;;;;;;5037231;28;20065;-86
2023/04/22 00:03:14;;;;;;;8.30;7.32;;;12.40;99.90;;;;;;5036949;28;20040;-86
2023/04/22 00:05:40;;;;;;;7.63;6.82;;;12.40;99.90;;;;;;5036842;28;20033;-86
2023/04/22 00:08:07;;;;;;;7.38;6.57;;;12.40;99.90;;;;;;5053148;28;20037;-86
2023/04/22 00:10:32;;;;;;;9.45;6.60;;;12.40;99.90;;;;;;5036653;28;20083;-86
2023/04/22 00:12:58;;;;;;;9.73;6.80;;;12.40;99.90;;;;;;5053427;28;20084;-87
2023/04/22 00:15:25;;;;;;;7.70;6.90;;;12.40;99.90;;;;;;5067317;28;20040;-86
2023/04/22 00:17:51;;;;;;;8.15;6.80;;;12.40;99.90;;;;;;5053107;28;20044;-87
2023/04/22 00:20:18;;;;;;;8.98;7.20;;;12.30;99.90;;;;;;5054592;28;20033;-86
2023/04/22 00:22:43;;;;;;;7.65;6.63;;;12.30;99.90;;;;;;5036665;28;20416;-87
2023/04/22 00:25:09;;;;;;;9.18;6.60;;;12.30;99.90;;;;;;5053217;28;20045;-87
2023/04/22 00:27:34;;;;;;;8.75;6.60;;;12.20;99.90;;;;;;5052797;28;20052;-87
2023/04/22 00:30:00;;;;;;;6.22;5.57;;;12.10;99.90;;;;;;5052971;28;20475;-88
2023/04/22 00:32:25;;;;;;;8.23;6.57;;;12.00;99.90;;;;;;5036348;28;20045;-87
2023/04/22 00:34:51;;;;;;;7.03;6.28;;;11.90;99.90;;;;;;5059698;28;20094;-88
2023/04/22 00:37:17;;;;;;;8.13;6.35;;;11.80;99.90;;;;;;5056203;28;20036;-87
2023/04/22 00:39:42;;;;;;;7.22;5.88;;;11.70;99.90;;;;;;5051750;28;20040;-87
2023/04/22 00:42:08;;;;;;;8.90;6.50;;;11.60;99.90;;;;;;5046832;28;20451;-87
2023/04/22 00:44:35;;;;;;;8.20;6.70;;;11.40;99.90;;;;;;5039499;28;20041;-87
2023/04/22 00:47:01;;;;;;;7.68;6.18;;;11.40;99.90;;;;;;5051228;28;20041;-87
2023/04/22 00:49:26;;;;;;;11.07;6.60;;;11.30;99.90;;;;;;5036697;28;20040;-89
2023/04/22 00:51:52;;;;;;;9.02;6.95;;;11.20;99.90;;;;;;5056109;28;20043;-87
2023/04/22 00:54:18;;;;;;;8.35;6.10;;;11.20;99.90;;;;;;5043015;28;20033;-87
2023/04/22 00:56:45;;;;;;;7.40;6.25;;;11.20;99.90;;;;;;5067132;28;20399;-87
2023/04/22 00:59:11;;;;;;;7.40;6.10;;;11.10;99.90;;;;;;5048977;28;20033;-86
2023/04/22 01:01:36;;;;;;;6.50;5.85;;;11.10;99.90;;;;;;5048732;28;20087;-87
2023/04/22 01:04:03;;;;;;;8.50;6.88;;;11.00;99.90;;;;;;5056177;28;20068;-86
2023/04/22 01:06:32;;;;;;;6.68;5.85;;;11.00;99.90;;;;;;5044641;28;20512;-86
2023/04/22 01:08:58;;;;;;;8.85;6.78;;;11.00;99.90;;;;;;5052268;28;20071;-87
2023/04/22 01:11:24;;;;;;;8.20;7.40;;;10.90;99.90;;;;;;5044952;28;20049;-87
2023/04/22 01:13:50;;;;;;;7.97;6.95;;;10.90;99.90;;;;;;5039850;28;20068;-86
2023/04/22 01:16:15;;;;;;;8.50;7.55;;;10.90;99.90;;;;;;5052101;28;20037;-87
2023/04/22 01:18:41;;;;;;;9.23;8.00;;;10.90;99.90;;;;;;5051980;28;20037;-86
2023/04/22 01:21:07;;;;;;;9.95;8.20;;;10.90;99.90;;;;;;5052010;28;20041;-86
2023/04/22 01:23:33;;;;;;;8.70;7.72;;;11.00;99.90;;;;;;5035353;28;20056;-86
2023/04/22 01:25:58;;;;;;;8.85;7.95;;;11.00;99.90;;;;;;5052998;28;20041;-86
2023/04/22 01:28:24;;;;;;;9.27;7.75;;;11.10;99.90;;;;;;5051580;28;20029;-86
2023/04/22 01:30:51;;;;;;;9.77;7.43;;;11.10;99.90;;;;;;5051745;28;20451;-87
2023/04/22 01:33:17;;;;;;;8.27;7.25;;;11.10;99.90;;;;;;5051714;28;20041;-87
2023/04/22 01:35:43;;;;;;;8.77;7.88;;;11.10;99.90;;;;;;5066561;28;20059;-87
2023/04/22 01:38:11;;;;;;;9.82;8.18;;;11.10;99.90;;;;;;5051768;28;20040;-87
2023/04/22 01:40:37;;;;;;;11.55;7.65;;;11.10;99.90;;;;;;5052896;28;20033;-87
2023/04/22 01:43:03;;;;;;;8.95;8.05;;;11.10;99.90;;;;;;5035073;28;20078;-87
2023/04/22 01:45:28;;;;;;;8.88;7.97;;;11.10;99.90;;;;;;5035108;28;20040;-87
2023/04/22 01:47:54;;;;;;;10.52;8.02;;;11.10;99.90;;;;;;5051334;28;20047;-87
2023/04/22 01:50:20;;;;;;;9.40;8.43;;;11.00;99.90;;;;;;5035114;28;20119;-87
2023/04/22 01:52:46;;;;;;;9.63;8.63;;;11.00;99.90;;;;;;5052544;28;20052;-87
2023/04/22 01:55:12;;;;;;;9.45;7.93;;;10.90;99.90;;;;;;5053267;28;20033;-87
2023/04/22 01:57:37;;;;;;;9.68;8.25;;;10.90;99.90;;;;;;5063889;28;20040;-86
2023/04/22 02:00:10;;;;;;;11.77;9.23;;;10.90;99.90;;;;;;5052501;28;20401;-86
2023/04/22 02:02:35;;;;;;;10.93;9.25;;;10.80;99.90;;;;;;5051363;28;20041;-86
2023/04/22 02:05:01;;;;;;;9.70;8.60;;;10.80;99.90;;;;;;5051481;28;20041;-86
2023/04/22 02:07:26;;;;;;;8.95;8.05;;;10.80;99.90;;;;;;5050755;28;20040;-86
2023/04/22 02:09:52;;;;;;;10.18;8.85;;;10.80;99.90;;;;;;5051300;28;20053;-86
2023/04/22 02:12:18;;;;;;;9.98;8.88;;;11.00;99.90;;;;;;5034299;28;20049;-86
2023/04/22 02:14:43;;;;;;;11.07;9.52;;;10.80;99.90;;;;;;5051114;28;20063;-86
2023/04/22 02:17:09;;;;;;;9.55;8.55;;;10.80;99.90;;;;;;5051927;28;20037;-86
2023/04/22 02:19:35;;;;;;;9.13;8.23;;;10.80;99.90;;;;;;5051934;28;20029;-85
2023/04/22 02:22:00;;;;;;;9.52;8.52;;;10.80;99.90;;;;;;5051919;28;20071;-86
2023/04/22 02:24:26;;;;;;;8.23;7.38;;;10.70;99.90;;;;;;5051885;28;20400;-86
2023/04/22 02:26:52;;;;;;;11.13;9.18;;;10.70;99.90;;;;;;5051909;28;20475;-86
2023/04/22 02:29:17;;;;;;;9.63;8.63;;;10.70;99.90;;;;;;5050823;28;20752;-86
2023/04/22 02:31:43;;;;;;;9.20;7.55;;;10.70;99.90;;;;;;5050610;28;20458;-86
2023/04/22 02:34:08;;;;;;;9.55;8.20;;;10.60;99.90;;;;;;5050390;28;20048;-86
2023/04/22 02:36:34;;;;;;;8.85;7.95;;;10.60;99.90;;;;;;5034135;28;20041;-86
2023/04/22 02:39:02;;;;;;;9.20;8.20;;;10.60;99.90;;;;;;5051745;28;20524;-86
2023/04/22 02:41:28;;;;;;;7.72;6.93;;;10.50;99.90;;;;;;5050416;28;20071;-86
2023/04/22 02:43:53;;;;;;;18.90;5.75;;;10.40;99.90;;;;;;5050391;28;20041;-86
2023/04/22 02:46:19;;;;;;;19.50;4.70;;;10.40;99.90;;;;;;5050528;28;20041;-86
2023/04/22 02:48:44;;;;;;;25.58;5.28;;;10.30;99.90;;;;;;5058973;28;20045;-86
2023/04/22 02:51:10;;;;;;;7.07;5.80;;;10.20;99.90;;;;;;5055153;28;20045;-86
2023/04/22 02:53:36;;;;;;;6.18;5.57;;;10.10;99.90;;;;;;5050243;28;20041;-86
2023/04/22 02:56:02;;;;;;;6.57;5.88;;;10.10;99.90;;;;;;5058957;28;20488;-86
2023/04/22 02:58:27;;;;;;;6.07;5.47;;;10.00;99.90;;;;;;5055131;28;20037;-86
2023/04/22 03:00:53;;;;;;;7.70;6.57;;;10.00;99.90;;;;;;5050210;28;20048;-86
2023/04/22 03:03:18;;;;;;;8.55;7.03;;;9.90;99.90;;;;;;5051390;28;20044;-86
2023/04/22 03:05:44;;;;;;;8.23;6.85;;;9.90;99.90;;;;;;5051190;28;20033;-86
2023/04/22 03:08:10;;;;;;;8.73;7.55;;;9.80;99.90;;;;;;5049662;28;20033;-86
2023/04/22 03:10:35;;;;;;;10.70;7.55;;;9.80;99.90;;;;;;5049385;28;20074;-86
2023/04/22 03:13:01;;;;;;;13.63;6.18;;;9.80;99.90;;;;;;5051388;28;20037;-85
2023/04/22 03:15:27;;;;;;;8.98;6.38;;;9.70;99.90;;;;;;5049903;28;20039;-86
2023/04/22 03:17:52;;;;;;;7.63;6.70;;;9.70;99.90;;;;;;5049628;28;20416;-86
2023/04/22 03:20:19;;;;;;;10.73;6.65;;;9.60;99.90;;;;;;5049877;28;20071;-85
2023/04/22 03:22:44;;;;;;;8.23;6.10;;;9.60;99.90;;;;;;5049715;28;20045;-85
2023/04/22 03:25:10;;;;;;;25.33;7.20;;;9.50;99.90;;;;;;5049863;28;20048;-86
2023/04/22 03:27:36;;;;;;;13.50;6.93;;;9.50;99.90;;;;;;5050817;28;20037;-85
2023/04/22 03:30:03;;;;;;;12.70;5.80;;;9.50;99.90;;;;;;5050104;28;20028;-85
2023/04/22 03:32:29;;;;;;;10.82;5.10;;;9.50;99.90;;;;;;5049532;28;20048;-85
2023/04/22 03:34:55;;;;;;;5.18;4.68;;;9.40;99.90;;;;;;5050867;28;20044;-85
2023/04/22 03:37:20;;;;;;;6.32;5.53;;;9.30;99.90;;;;;;5049835;28;20047;-85
2023/04/22 03:39:46;;;;;;;10.20;8.95;;;9.30;99.90;;;;;;5049430;28;20056;-85
2023/04/22 03:42:13;;;;;;;10.10;9.10;;;9.30;99.90;;;;;;5049762;28;20045;-85
2023/04/22 03:44:39;;;;;;;9.88;8.88;;;9.30;99.90;;;;;;5050750;28;20059;-85
2023/04/22 03:47:04;;;;;;;10.68;8.70;;;9.40;99.90;;;;;;5049759;28;20036;-85
2023/04/22 03:49:30;;;;;;;10.77;9.27;;;9.40;99.90;;;;;;5049238;28;20052;-85
2023/04/22 03:51:56;;;;;;;12.85;9.98;;;9.40;99.90;;;;;;5050899;28;20075;-85
2023/04/22 03:54:22;;;;;;;12.27;9.02;;;9.40;99.90;;;;;;5049447;28;20037;-85
2023/04/22 03:56:48;;;;;;;10.70;8.82;;;9.40;99.90;;;;;;5063292;28;20044;-85
2023/04/22 03:59:13;;;;;;;10.98;9.48;;;9.30;99.90;;;;;;5050727;28;20041;-85
2023/04/22 04:01:39;;;;;;;11.82;9.05;;;9.30;99.90;;;;;;5049556;28;20077;-85
2023/04/22 04:04:04;;;;;;;13.27;9.10;;;9.30;99.90;;;;;;5049346;28;20037;-85
2023/04/22 04:06:30;;;;;;;11.35;10.15;;;9.30;99.90;;;;;;5049419;28;20052;-85
2023/04/22 04:08:57;;;;;;;12.35;10.02;;;9.20;99.90;;;;;;5049469;28;20091;-85
2023/04/22 04:11:23;;;;;;;12.40;10.05;;;9.20;99.90;;;;;;5050819;28;20124;-85
2023/04/22 04:13:48;;;;;;;11.60;9.18;;;9.20;99.90;;;;;;5050492;28;20052;-85
2023/04/22 04:16:15;;;;;;;11.70;9.77;;;9.10;99.90;;;;;;5051060;28;20037;-85
2023/04/22 04:18:40;;;;;;;10.18;9.05;;;9.20;99.90;;;;;;5049006;28;20081;-85
2023/04/22 04:21:06;;;;;;;12.25;10.95;;;9.10;99.90;;;;;;5051311;28;20072;-85
2023/04/22 04:23:32;;;;;;;12.02;10.73;;;9.20;99.90;;;;;;5053083;28;20041;-85
2023/04/22 04:26:00;;;;;;;13.95;10.63;;;9.20;99.90;;;;;;5053171;28;20373;-85
2023/04/22 04:28:25;;;;;;;14.48;10.88;;;9.10;99.90;;;;;;5053019;28;20107;-85
2023/04/22 04:30:52;;;;;;;13.90;10.95;;;9.10;99.90;;;;;;5054169;28;20089;-85
2023/04/22 04:33:17;;;;;;;11.65;10.20;;;9.20;99.90;;;;;;5052751;28;20080;-85
2023/04/22 04:35:43;;;;;;;11.90;10.10;;;9.20;99.90;;;;;;5054083;28;20092;-85
2023/04/22 04:38:10;;;;;;;12.77;10.95;;;9.20;99.90;;;;;;5052635;28;20059;-85
2023/04/22 04:40:36;;;;;;;14.07;10.70;;;9.20;99.90;;;;;;5053992;28;20076;-85
2023/04/22 04:43:03;;;;;;;13.15;11.85;;;9.20;99.90;;;;;;5052501;28;20453;-86
2023/04/22 04:45:29;;;;;;;12.90;11.02;;;9.20;99.90;;;;;;5052912;28;20083;-85
2023/04/22 04:47:55;;;;;;;13.63;11.30;;;9.20;99.90;;;;;;5053547;28;20052;-85
2023/04/22 04:50:21;;;;;;;16.77;12.00;;;9.30;99.90;;;;;;5052540;28;20045;-85
2023/04/22 04:52:50;;;;;;;15.40;11.68;;;9.30;99.90;;;;;;5052289;28;20045;-85
2023/04/22 04:55:16;;;;;;;13.07;11.25;;;9.30;99.90;;;;;;5056173;28;20412;-85
2023/04/22 04:57:44;;;;;;;13.38;11.43;;;9.60;99.90;;;;;;5064785;28;20155;-85
2023/04/22 05:00:09;;;;;;;13.30;11.15;;;9.40;99.90;;;;;;5052343;28;20041;-85
2023/04/22 05:02:35;;;;;;;12.55;10.93;;;9.40;99.90;;;;;;5053655;28;20049;-85
2023/04/22 05:05:01;;;;;;;12.95;10.88;;;9.50;99.90;;;;;;5052185;28;20051;-85
2023/04/22 05:07:26;;;;;;;12.15;10.75;;;9.50;99.90;;;;;;5053067;28;20036;-85
2023/04/22 05:09:52;;;;;;;17.02;10.80;;;9.60;99.90;;;;;;5052113;28;20041;-85
2023/04/22 05:12:18;;;;;;;12.55;10.70;;;9.60;99.90;;;;;;5051955;28;20460;-85
2023/04/22 05:14:45;;;;;;;12.57;10.77;;;9.60;99.90;;;;;;5052006;28;20063;-84
2023/04/22 05:17:11;;;;;;;13.20;10.98;;;9.60;99.90;;;;;;5053013;28;20100;-85
2023/04/22 05:19:37;;;;;;;11.63;10.43;;;9.70;99.90;;;;;;5053324;28;20045;-84
2023/04/22 05:22:02;;;;;;;12.70;10.95;;;9.70;99.90;;;;;;5052109;28;20040;-85
2023/04/22 05:24:28;;;;;;;14.38;11.45;;;9.70;99.90;;;;;;5051981;28;20060;-85
2023/04/22 05:26:53;;;;;;;12.55;11.25;;;9.70;99.90;;;;;;5053409;28;20040;-85
2023/04/22 05:29:19;;;;;;;13.32;11.10;;;9.70;99.90;;;;;;5055631;28;20040;-85
2023/04/22 05:31:44;;;;;;;12.80;10.20;;;9.70;99.90;;;;;;5062176;28;20045;-85
2023/04/22 05:34:11;;;;;;;12.65;11.27;;;9.70;99.90;;;;;;5052671;28;20342;-85
2023/04/22 05:36:36;;;;;;;11.93;10.48;;;9.80;99.90;;;;;;5051821;28;20564;-86
2023/04/22 05:39:02;;;;;;;11.73;10.30;;;9.70;99.90;;;;;;5052917;28;20116;-85
2023/04/22 05:41:28;;;;;;;10.93;9.82;;;9.80;99.90;;;;;;5052922;28;20035;-85
2023/04/22 05:43:53;;;;;;;15.02;12.05;;;9.90;99.90;;;;;;5051379;28;20128;-85
2023/04/22 05:46:19;;;;;;;13.88;11.38;;;9.90;99.90;;;;;;5051364;28;20033;-85
2023/04/22 05:48:44;;;;;;;12.75;11.43;;;10.00;99.90;;;;;;5051303;28;20041;-85
2023/04/22 05:51:10;;;;;;;12.73;10.70;;;10.00;99.90;;;;;;5051201;28;20452;-85
2023/04/22 05:53:35;;;;;;;12.70;10.48;;;10.10;99.90;;;;;;5051195;28;20041;-85
2023/04/22 05:56:01;;;;;;;13.13;11.00;;;10.10;99.90;;;;;;5060239;28;20094;-85
2023/04/22 05:58:27;;;;;;;13.55;11.05;;;10.10;99.90;;;;;;5056104;28;20047;-85
2023/04/22 06:00:52;;;;;;;14.68;10.85;;;10.20;99.90;;;;;;5052335;28;20118;-85
2023/04/22 06:03:18;;;;;;;13.00;10.90;;;10.20;99.90;;;;;;5052376;28;20500;-85
2023/04/22 06:05:43;;;;;;;12.35;10.85;;;10.20;99.90;;;;;;5053351;28;20108;-85
2023/04/22 06:08:09;;;;;;;13.13;10.88;;;10.20;99.90;;;;;;5052091;28;20069;-85
2023/04/22 06:10:35;;;;;;;11.18;9.95;;;10.20;99.90;;;;;;5051054;28;20039;-85
2023/04/22 06:13:00;;;;;;;12.38;10.60;;;10.20;99.90;;;;;;5052081;28;20108;-85
2023/04/22 06:15:26;;;;;;;11.80;10.52;;;10.20;99.90;;;;;;5050658;28;20045;-86
2023/04/22 06:17:51;;;;;;;12.35;10.52;;;10.30;99.90;;;;;;5050685;28;20484;-85
2023/04/22 06:20:17;;;;;;;12.07;10.48;;;10.30;99.90;;;;;;5034433;28;20041;-86
2023/04/22 06:22:43;;;;;;;14.05;11.68;;;10.30;99.90;;;;;;5052189;28;20079;-86
2023/04/22 06:25:08;;;;;;;13.18;11.25;;;10.30;99.90;;;;;;5052167;28;20046;-86
2023/04/22 06:27:34;;;;;;;13.90;9.82;;;10.40;99.90;;;;;;5050380;28;20033;-84
2023/04/22 06:29:59;;;;;;;11.35;10.15;;;10.40;99.90;;;;;;5050592;28;20599;-86
2023/04/22 06:32:25;;;;;;;11.95;10.10;;;10.40;99.90;;;;;;5050480;28;20052;-86
2023/04/22 06:34:51;;;;;;;11.98;10.18;;;10.50;99.90;;;;;;5051962;28;20479;-86
2023/04/22 06:37:16;;;;;;;11.60;10.02;;;10.50;99.90;;;;;;5033881;28;20041;-85
2023/04/22 06:39:42;;;;;;;11.07;9.98;;;10.60;99.90;;;;;;5064713;28;20037;-85
2023/04/22 06:42:07;;;;;;;13.05;10.73;;;10.70;99.90;;;;;;5041204;28;20041;-86
2023/04/22 06:44:33;;;;;;;12.23;10.00;;;10.80;99.90;;;;;;5052766;28;20040;-86
2023/04/22 06:46:59;;;;;;;12.13;10.73;;;10.80;99.90;;;;;;5054143;28;20040;-86
2023/04/22 06:49:24;;;;;;;11.93;10.23;;;10.90;99.90;;;;;;5053545;28;20127;-86
2023/04/22 06:51:50;;;;;;;14.45;10.05;;;11.00;99.90;;;;;;5040173;28;20135;-86
2023/04/22 06:54:15;;;;;;;11.50;9.82;;;11.10;99.90;;;;;;5041395;28;20059;-86
2023/04/22 06:56:41;;;;;;;10.48;9.35;;;11.20;99.90;;;;;;5064278;28;20086;-85
2023/04/22 06:59:07;;;;;;;11.43;10.27;;;11.20;99.90;;;;;;5039834;28;20476;-87
2023/04/22 07:01:32;;;;;;;10.93;9.82;;;11.30;99.90;;;;;;5041507;28;20068;-86
2023/04/22 07:03:58;;;;;;;10.48;9.18;;;11.40;99.90;;;;;;5064443;28;20037;-86
2023/04/22 07:06:23;;;;;;;12.75;9.65;;;11.40;99.90;;;;;;5033597;28;20041;-86
2023/04/22 07:08:49;;;;;;;15.38;9.95;;;11.50;99.90;;;;;;5033475;28;20040;-87
2023/04/22 07:11:15;;;;;;;11.75;9.88;;;11.90;99.90;;;;;;5041783;28;20040;-87
2023/04/22 07:13:40;;;;;;;11.38;10.10;;;11.60;99.90;;;;;;5055833;28;20501;-87
2023/04/22 07:16:06;;;;;;;11.23;10.02;;;11.70;99.90;;;;;;5050104;28;20025;-87
2023/04/22 07:18:34;;;;;;;11.65;9.73;;;11.80;99.90;;;;;;5049942;28;20487;-87
2023/04/22 07:20:59;;;;;;;11.05;9.88;;;11.90;99.90;;;;;;5033517;28;20037;-87
2023/04/22 07:23:25;;;;;;;11.75;9.90;;;12.00;99.90;;;;;;5050044;28;20045;-86
2023/04/22 07:25:51;;;;;;;13.18;10.25;;;12.10;99.90;;;;;;5049809;28;20554;-87
2023/04/22 07:28:17;;;;;;;12.65;9.90;;;12.10;99.90;;;;;;5049538;28;20497;-88
2023/04/22 07:30:42;;;;;;;12.27;9.98;;;12.20;99.90;;;;;;5050065;28;20051;-87
2023/04/22 07:33:08;;;;;;;12.05;10.52;;;12.30;99.90;;;;;;5051055;28;20119;-87
2023/04/22 07:35:34;;;;;;;12.50;10.52;;;12.30;99.90;;;;;;5050102;28;20489;-86
2023/04/22 07:37:59;;;;;;;11.82;9.90;;;12.40;99.90;;;;;;5050638;28;20385;-86
2023/04/22 07:40:25;;;;;;;10.77;9.35;;;12.50;99.90;;;;;;5049687;28;20488;-88
2023/04/22 07:42:51;;;;;;;11.60;10.30;;;12.60;99.90;;;;;;5049786;28;20084;-87
2023/04/22 07:45:17;;;;;;;11.55;9.65;;;12.70;99.90;;;;;;5049726;28;20507;-86
2023/04/22 07:47:42;;;;;;;11.32;9.50;;;13.20;99.90;;;;;;5049372;28;20048;-86
2023/04/22 07:50:08;;;;;;;11.95;10.20;;;13.00;99.90;;;;;;5033136;28;20420;-86
2023/04/22 07:52:35;;;;;;;11.90;9.90;;;13.10;99.90;;;;;;5033032;28;20409;-86
2023/04/22 07:55:00;;;;;;;11.75;9.82;;;13.10;99.90;;;;;;5050256;28;20492;-86
2023/04/22 07:57:26;;;;;;;10.18;9.13;;;13.20;99.90;;;;;;5073459;28;20120;-85
2023/04/22 07:59:51;;;;;;;11.98;9.93;;;13.20;99.90;;;;;;5062601;28;20120;-86
2023/04/22 08:02:17;;;;;;;12.02;9.70;;;13.30;99.90;;;;;;5053226;28;20048;-85
2023/04/22 08:04:43;;;;;;;11.48;9.57;;;13.40;99.90;;;;;;5053446;28;20464;-85
2023/04/22 08:07:09;;;;;;;11.55;9.73;;;13.40;99.90;;;;;;5053218;28;20548;-85
2023/04/22 08:09:34;;;;;;;11.98;10.00;;;13.50;99.90;;;;;;5054695;28;20035;-85
2023/04/22 08:12:00;;;;;;;11.80;9.25;;;13.60;99.90;;;;;;5054351;28;20049;-84
2023/04/22 08:14:25;;;;;;;12.60;9.65;;;13.70;99.90;;;;;;5053195;28;20404;-84
2023/04/22 08:16:51;;;;;;;13.13;10.30;;;13.80;99.90;;;;;;5053389;28;20041;-84
2023/04/22 08:19:18;;;;;;;11.48;9.48;;;13.90;99.90;;;;;;5054861;28;20119;-83
2023/04/22 08:21:43;;;;;;;10.82;9.65;;;14.00;99.90;;;;;;5053684;28;20047;-84
2023/04/22 08:24:09;;;;;;;11.45;9.43;;;14.10;99.90;;;;;;5054511;28;20037;-84
2023/04/22 08:26:36;;;;;;;10.57;9.40;;;14.20;99.90;;;;;;5053497;28;20515;-84
2023/04/22 08:29:03;;;;;;;12.60;9.40;;;14.30;99.90;;;;;;5054286;28;20048;-84
2023/04/22 08:31:28;;;;;;;12.30;9.38;;;14.30;99.90;;;;;;5055331;28;20037;-82
2023/04/22 08:33:54;;;;;;;10.60;9.50;;;14.40;99.90;;;;;;5054251;28;20469;-83
2023/04/22 08:36:22;;;;;;;10.75;9.25;;;14.60;99.90;;;;;;5055704;28;20040;-81
2023/04/22 08:38:48;;;;;;;11.02;9.35;;;14.70;99.90;;;;;;5054671;28;20092;-81
2023/04/22 08:41:14;;;;;;;10.57;9.27;;;14.90;99.90;;;;;;5055068;28;20116;-82
2023/04/22 08:43:40;;;;;;;9.93;8.57;;;15.10;99.90;;;;;;5055653;28;20076;-84
2023/04/22 08:46:06;;;;;;;10.93;9.65;;;15.30;99.90;;;;;;5054306;28;20048;-80
2023/04/22 08:48:31;;;;;;;12.23;9.32;;;15.40;99.90;;;;;;5056784;28;20041;-82
2023/04/22 08:50:58;;;;;;;10.65;9.15;;;15.50;99.90;;;;;;5057186;28;20060;-81
2023/04/22 08:53:24;;;;;;;9.80;8.65;;;15.60;99.90;;;;;;5057464;28;20449;-82
2023/04/22 08:55:50;;;;;;;12.20;9.30;;;15.60;99.90;;;;;;5062679;28;20037;-83
2023/04/22 08:58:16;;;;;;;11.30;9.55;;;15.70;99.90;;;;;;5078294;28;20055;-82
2023/04/22 09:00:43;;;;;;;10.93;8.65;;;15.70;99.90;;;;;;5056672;28;20408;-82
2023/04/22 09:03:09;;;;;;;10.15;9.15;;;15.90;99.90;;;;;;5054775;28;20060;-81
2023/04/22 09:05:36;;;;;;;10.00;8.68;;;15.80;99.90;;;;;;5054459;28;20044;-81
2023/04/22 09:08:02;;;;;;;9.65;8.65;;;15.90;99.90;;;;;;5055035;28;20045;-81
2023/04/22 09:10:31;;;;;;;15.98;9.05;;;15.90;99.90;;;;;;5055423;28;20048;-81
2023/04/22 09:12:57;;;;;;;11.13;8.75;;;15.90;99.90;;;;;;5054828;28;20044;-81
2023/04/22 09:15:24;;;;;;;11.65;9.40;;;16.00;99.90;;;;;;5054207;28;20047;-81
2023/04/22 09:17:52;;;;;;;10.02;8.82;;;16.10;99.90;;;;;;5054413;28;20036;-81
2023/04/22 09:20:18;;;;;;;9.10;8.20;;;16.20;99.90;;;;;;5054390;28;20056;-81
2023/04/22 09:22:48;;;;;;;8.93;8.00;;;16.40;99.90;;;;;;5054261;28;20048;-82
2023/04/22 09:25:18;;;;;;;9.82;8.45;;;16.50;99.90;;;;;;5037621;28;20123;-82
2023/04/22 09:27:51;;;;;;;9.35;7.55;;;16.60;99.90;;;;;;5037549;28;20049;-81
2023/04/22 09:30:32;;;;;;;9.55;8.52;;;16.80;99.90;;;;;;5055862;28;20048;-82
2023/04/22 09:33:03;;;;;;;9.20;8.18;;;16.90;99.90;;;;;;5054276;28;20048;-82
2023/04/22 09:35:39;;;;;;;10.60;8.68;;;17.00;99.90;;;;;;5054969;28;20119;-82
2023/04/22 09:38:06;;;;;;;10.10;8.05;;;17.20;99.90;;;;;;5053893;28;20040;-82
2023/04/22 09:40:33;;;;;;;8.65;7.70;;;17.40;99.90;;;;;;5054335;28;20404;-82
2023/04/22 09:43:02;;;;;;;9.07;7.82;;;17.50;99.90;;;;;;5054056;28;20049;-82
2023/04/22 09:45:33;;;;;;;9.20;7.78;;;17.80;99.90;;;;;;5053658;28;20637;-82
2023/04/22 09:48:05;;;;;;;9.25;7.82;;;18.00;99.90;;;;;;5054986;28;20123;-82
2023/04/22 09:50:30;;;;;;;7.88;7.03;;;18.10;99.90;;;;;;5054628;28;20041;-82
2023/04/22 09:52:59;;;;;;;8.52;7.40;;;18.10;99.90;;;;;;5053047;28;20464;-82
2023/04/22 09:55:26;;;;;;;8.07;7.10;;;18.10;99.90;;;;;;5057143;28;20487;-81
2023/04/22 09:57:56;;;;;;;9.52;7.53;;;18.20;99.90;;;;;;5063379;28;20523;-83
2023/04/22 10:00:26;;;;;;;8.52;7.07;;;18.20;99.90;;;;;;5054294;28;20044;-82
2023/04/22 10:02:51;;;;;;;8.43;7.57;;;18.20;99.90;;;;;;5057209;28;20439;-81
2023/04/22 10:05:17;;;;;;;10.63;7.57;;;18.30;99.90;;;;;;5056602;28;20037;-81
2023/04/22 10:07:43;;;;;;;8.27;7.10;;;18.30;99.90;;;;;;5056841;28;20037;-81
2023/04/22 10:10:09;;;;;;;8.07;6.57;;;18.30;99.90;;;;;;5056980;28;20492;-82
2023/04/22 10:12:36;;;;;;;8.48;7.05;;;18.30;99.90;;;;;;5056274;28;20083;-82
2023/04/22 10:15:06;;;;;;;8.15;6.38;;;18.30;99.90;;;;;;5054179;28;20041;-82
2023/04/22 10:17:34;;;;;;;7.38;6.05;;;18.40;99.90;;;;;;5055768;28;20415;-82
2023/04/22 10:20:03;;;;;;;8.40;6.35;;;18.50;99.90;;;;;;5053798;28;20041;-82
2023/04/22 10:22:31;;;;;;;7.22;6.50;;;18.70;99.90;;;;;;5053795;28;20052;-82
2023/04/22 10:24:57;;;;;;;7.43;6.43;;;18.80;99.90;;;;;;5052873;28;20413;-82
2023/04/22 10:27:23;;;;;;;7.70;6.40;;;19.00;99.90;;;;;;5053083;28;20044;-84
2023/04/22 10:29:49;;;;;;;8.60;6.22;;;19.00;99.90;;;;;;5052662;28;20084;-83
2023/04/22 10:32:17;;;;;;;8.40;6.20;;;19.00;99.90;;;;;;5052294;28;20041;-83
2023/04/22 10:34:45;;;;;;;7.28;5.90;;;19.10;99.90;;;;;;5051790;28;20037;-84
2023/04/22 10:37:12;;;;;;;8.27;6.40;;;19.30;99.90;;;;;;5052196;28;20045;-84
2023/04/22 10:39:41;;;;;;;6.80;5.72;;;19.40;99.90;;;;;;5050473;28;20076;-84
2023/04/22 10:42:11;;;;;;;7.07;5.85;;;19.40;99.90;;;;;;5051931;28;20051;-84
2023/04/22 10:45:00;;;;;;;7.20;6.13;;;19.60;99.90;;;;;;5050627;28;20091;-84
2023/04/22 10:47:37;;;;;;;6.68;5.05;;;19.80;99.90;;;;;;5034008;28;20039;-84
2023/04/22 10:50:25;;;;;;;6.70;5.50;;;19.90;99.90;;;;;;5050430;28;20489;-85
2023/04/22 10:52:56;;;;;;;7.53;5.68;;;20.00;99.90;;;;;;5050594;28;20090;-85
2023/04/22 10:55:22;;;;;;;7.53;5.55;;;20.00;99.90;;;;;;5036869;28;20054;-85
2023/04/22 10:57:49;;;;;;;5.85;5.25;;;20.10;99.90;;;;;;5062164;28;20417;-85
2023/04/22 11:00:38;;;;;;;6.68;5.75;;;20.20;99.90;;;;;;5034042;28;20076;-84
2023/04/22 11:03:04;;;;;;;8.00;5.70;;;20.20;99.90;;;;;;5050160;28;20037;-85
2023/04/22 11:05:30;;;;;;;7.13;5.85;;;20.50;99.90;;;;;;5051268;28;20052;-85
2023/04/22 11:08:06;;;;;;;6.20;5.07;;;20.60;99.90;;;;;;5049722;28;20041;-85
2023/04/22 11:10:32;;;;;;;5.18;4.40;;;20.80;99.90;;;;;;5051145;28;20401;-86
2023/04/22 11:12:59;;;;;;;6.18;5.30;;;21.00;99.90;;;;;;5049982;28;20075;-84
2023/04/22 11:15:26;;;;;;;6.22;4.70;;;21.00;99.90;;;;;;5051270;28;20036;-86
2023/04/22 11:17:53;;;;;;;6.07;4.65;;;21.30;99.90;;;;;;5050245;28;20037;-84
2023/04/22 11:20:19;;;;;;;5.40;4.20;;;21.40;99.90;;;;;;5050489;28;20044;-86
2023/04/22 11:22:47;;;;;;;4.82;4.32;;;21.50;99.90;;;;;;5049837;28;20049;-85
2023/04/22 11:25:13;;;;;;;4.65;3.75;;;21.60;99.90;;;;;;5049846;28;20053;-86
2023/04/22 11:27:42;;;;;;;4.30;3.90;;;21.80;99.90;;;;;;5049533;28;20048;-85
2023/04/22 11:30:19;;;;;;;7.05;4.50;;;21.80;99.90;;;;;;5049177;28;20083;-86
2023/04/22 11:32:47;;;;;;;5.68;4.80;;;21.90;99.90;;;;;;5049661;28;20084;-86
2023/04/22 11:35:33;;;;;;;5.32;4.82;;;21.90;99.90;;;;;;5049977;28;20041;-86
2023/04/22 11:38:01;;;;;;;7.68;5.15;;;21.90;99.90;;;;;;5050059;28;20115;-84
2023/04/22 11:40:33;;;;;;;8.40;5.57;;;22.00;99.90;;;;;;5051284;28;20049;-85
2023/04/22 11:43:01;;;;;;;5.55;4.95;;;21.90;99.90;;;;;;5050152;28;20118;-83
2023/04/22 11:45:28;;;;;;;7.07;5.03;;;22.00;99.90;;;;;;5049832;28;20135;-83
2023/04/22 11:47:55;;;;;;;6.78;5.60;;;22.50;99.90;;;;;;5050225;28;20556;-85
2023/04/22 11:50:23;;;;;;;5.85;5.28;;;22.50;99.90;;;;;;5050215;28;20041;-81
2023/04/22 11:52:57;;;;;;;5.38;4.88;;;22.50;99.90;;;;;;5050169;28;20492;-83
2023/04/22 11:55:26;;;;;;;5.90;3.97;;;22.50;99.90;;;;;;5054404;28;20032;-84
2023/04/22 11:58:05;;;;;;;5.57;4.00;;;22.60;99.90;;;;;;5061133;28;20114;-85
2023/04/22 12:00:36;;;;;;;4.40;4.00;;;22.70;99.90;;;;;;5049408;28;20520;-86
2023/04/22 12:03:06;;;;;;;6.05;3.97;;;22.60;99.90;;;;;;5050757;28;20047;-85
2023/04/22 12:05:40;;;;;;;4.88;3.88;;;22.60;99.90;;;;;;5049452;28;20095;-84
2023/04/22 12:08:08;;;;;;;5.47;3.92;;;22.70;99.90;;;;;;5050951;28;20033;-85
2023/04/22 12:10:38;;;;;;;5.03;3.58;;;22.60;99.90;;;;;;5050901;28;20037;-84
2023/04/22 12:13:03;;;;;;;5.57;4.53;;;22.60;99.90;;;;;;5060239;28;20408;-85
2023/04/22 12:15:40;;;;;;;5.70;4.10;;;22.40;99.90;;;;;;5054440;28;20115;-86
2023/04/22 12:18:06;;;;;;;4.65;4.00;;;22.40;99.90;;;;;;5050371;28;20400;-86
2023/04/22 12:20:41;;;;;;;9.73;4.63;;;22.20;99.90;;;;;;5051330;28;20116;-83
2023/04/22 12:23:16;;;;;;;6.05;4.03;;;21.80;99.90;;;;;;5049617;28;20120;-84
2023/04/22 12:25:42;;;;;;;5.25;3.90;;;21.50;99.90;;;;;;5049276;28;20048;-84
2023/04/22 12:28:09;;;;;;;5.45;3.63;;;21.30;99.90;;;;;;5049092;28;20128;-86
2023/04/22 12:30:34;;;;;;;6.10;4.47;;;21.30;99.90;;;;;;5049698;28;20047;-85
2023/04/22 12:33:00;;;;;;;5.38;4.78;;;21.20;99.90;;;;;;5032564;28;20516;-85
2023/04/22 12:35:25;;;;;;;6.35;4.47;;;21.00;99.90;;;;;;5049339;28;20049;-84
2023/04/22 12:37:51;;;;;;;8.05;5.20;;;21.00;99.90;;;;;;5049781;28;20071;-84